»·PEaware :: N2RF KTEX-KWYS

N2RF :: KTEX-KWYS

FLIGHT INFORMATION

Flight Status: Arrived
Operator: Privately registered:
United States
More flights under this callsign
Pilot: Ian G. (41107)
Aircraft: Cessna 525C Citation CJ4
(C25C)
More flights by this aircraft type
Origin: KTEX Telluride Regl
United States
Destination: KWYS Yellowstone
United States
More flights between these airports :: More routes between these airports
Route: ETL SPANZ DNW
File this flight plan on PilotEdge
Remarks: RMK / SIMBRIEF
Altitude:
(Current/Filed)
43,000ft
Speed:
(Current/Filed)
432kts
Departed: 09-Sep-23 03:07 PM
Arrived: 09-Sep-23 04:20 PM
Distance/Time
Traveled:
429nm/1:13
Distance/Time
To Go:
Arrived

Flight Plot

Page will automatically refresh every two minutes.

Flight plan parsing failed; only flown route is shown


Map Options




Map Legend


Flown Route
Filed Route
Departure Airport
Arrival Airport
Navaid (VOR, NDB)
Fix

Horizontal Profiles

Position Reports

Time Latitude Longitude Heading Altitude Ground
Speed
09-Sep-23 15:00 37.954114 -107.902917 92 9051ft 0kts
09-Sep-23 15:01 37.954114 -107.902917 92 9051ft 0kts
09-Sep-23 15:02 37.954114 -107.902917 92 9051ft 0kts
09-Sep-23 15:03 37.954114 -107.902917 92 9051ft 0kts
09-Sep-23 15:04 37.954114 -107.902917 92 9051ft 0kts
09-Sep-23 15:05 37.953274 -107.901204 133 9051ft 0kts
09-Sep-23 15:06 37.954073 -107.909843 283 9022ft 121kts
09-Sep-23 15:07 37.970314 -107.973751 289 11285ft 238kts
09-Sep-23 15:08 37.992642 -108.064311 287 14236ft 282kts
09-Sep-23 15:09 38.016598 -108.161806 286 17447ft 297kts
09-Sep-23 15:10 38.051995 -108.257490 319 20295ft 318kts
09-Sep-23 15:11 38.139371 -108.293246 341 23020ft 339kts
09-Sep-23 15:12 38.232245 -108.326115 340 25577ft 351kts
09-Sep-23 15:13 38.327768 -108.359915 340 28046ft 361kts
09-Sep-23 15:14 38.425762 -108.394644 339 30307ft 371kts
09-Sep-23 15:15 38.523305 -108.429290 338 32924ft 356kts
09-Sep-23 15:16 38.617008 -108.462677 337 35270ft 344kts
09-Sep-23 15:17 38.708616 -108.495411 336 37115ft 338kts
09-Sep-23 15:18 38.797951 -108.527422 335 38968ft 331kts
09-Sep-23 15:19 38.886422 -108.559206 334 40374ft 330kts
09-Sep-23 15:20 38.974680 -108.590984 335 41783ft 329kts
09-Sep-23 15:21 39.062835 -108.622830 335 43099ft 330kts
09-Sep-23 15:22 39.155343 -108.656363 335 43224ft 359kts
09-Sep-23 15:23 39.254692 -108.692415 336 43165ft 382kts
09-Sep-23 15:24 39.359289 -108.730498 336 43092ft 398kts
09-Sep-23 15:25 39.466085 -108.769495 336 43059ft 399kts
09-Sep-23 15:26 39.573236 -108.808753 336 43069ft 402kts
09-Sep-23 15:27 39.681221 -108.848474 336 43079ft 404kts
09-Sep-23 15:28 39.789320 -108.888334 336 43082ft 404kts
09-Sep-23 15:29 39.897567 -108.928389 336 43071ft 405kts
09-Sep-23 15:30 40.006067 -108.968663 336 43066ft 405kts
09-Sep-23 15:31 40.114397 -109.009031 336 43059ft 405kts
09-Sep-23 15:32 40.222917 -109.049587 336 43060ft 406kts
09-Sep-23 15:33 40.331504 -109.090319 336 43085ft 406kts
09-Sep-23 15:34 40.440545 -109.131335 336 43128ft 407kts
09-Sep-23 15:35 40.549459 -109.172443 336 43140ft 407kts
09-Sep-23 15:36 40.658221 -109.213652 336 43134ft 407kts
09-Sep-23 15:37 40.768195 -109.251710 338 43121ft 409kts
09-Sep-23 15:38 40.878218 -109.288853 338 43146ft 410kts
09-Sep-23 15:39 40.988870 -109.326336 338 43140ft 410kts
09-Sep-23 15:40 41.099829 -109.364056 338 43139ft 411kts
09-Sep-23 15:41 41.210645 -109.401846 338 43126ft 412kts
09-Sep-23 15:42 41.321953 -109.439945 338 43122ft 413kts
09-Sep-23 15:43 41.432998 -109.478085 338 43123ft 412kts
09-Sep-23 15:44 41.543997 -109.516346 338 43126ft 412kts
09-Sep-23 15:45 41.655061 -109.554768 338 43115ft 412kts
09-Sep-23 15:46 41.766000 -109.593279 338 43107ft 412kts
09-Sep-23 15:47 41.877128 -109.631985 338 43109ft 413kts
09-Sep-23 15:48 41.988221 -109.670841 338 43115ft 413kts
09-Sep-23 15:49 42.099354 -109.709829 338 43119ft 413kts
09-Sep-23 15:50 42.210619 -109.748982 338 42294ft 407kts
09-Sep-23 15:51 42.319906 -109.787672 337 40556ft 409kts
09-Sep-23 15:52 42.430487 -109.826882 336 39027ft 412kts
09-Sep-23 15:53 42.541427 -109.866365 336 37235ft 412kts
09-Sep-23 15:54 42.651879 -109.905829 336 35526ft 411kts
09-Sep-23 15:55 42.764265 -109.946146 337 33782ft 422kts
09-Sep-23 15:56 42.879185 -109.987539 337 31755ft 430kts
09-Sep-23 15:57 42.995143 -110.029460 338 29731ft 433kts
09-Sep-23 15:58 43.112291 -110.071944 339 27601ft 436kts
09-Sep-23 15:59 43.229119 -110.114518 339 25675ft 433kts
09-Sep-23 16:00 43.340013 -110.155048 339 23842ft 397kts
09-Sep-23 16:01 43.444715 -110.193505 340 21749ft 383kts
09-Sep-23 16:02 43.546716 -110.231057 340 19978ft 375kts
09-Sep-23 16:03 43.646368 -110.267899 340 18389ft 367kts
09-Sep-23 16:04 43.744172 -110.304210 340 16970ft 368kts
09-Sep-23 16:05 43.841507 -110.347244 322 16885ft 363kts
09-Sep-23 16:06 43.926432 -110.423341 323 16618ft 354kts
09-Sep-23 16:07 44.006030 -110.494824 322 15625ft 331kts
09-Sep-23 16:08 44.082067 -110.563398 322 14676ft 322kts
09-Sep-23 16:09 44.156918 -110.631101 322 13726ft 335kts
09-Sep-23 16:10 44.238655 -110.706008 319 12745ft 333kts
09-Sep-23 16:11 44.308429 -110.781755 320 11711ft 306kts
09-Sep-23 16:12 44.373931 -110.851558 319 10949ft 287kts
09-Sep-23 16:13 44.435174 -110.916845 320 10926ft 271kts
09-Sep-23 16:14 44.495048 -110.980938 320 10565ft 278kts
09-Sep-23 16:15 44.552535 -111.042503 321 9339ft 227kts
09-Sep-23 16:16 44.603410 -111.088942 326 8433ft 216kts
09-Sep-23 16:17 44.640736 -111.125063 327 7724ft 120kts
09-Sep-23 16:18 44.671377 -111.129462 25 6882ft 116kts
09-Sep-23 16:19 44.691653 -111.115008 82 6650ft 26kts
09-Sep-23 16:20 44.686952 -111.115380 176 6651ft 9kts

Navigation Log

Ident Type
Flight plan parsing failed, navigation log unavailable